Key West, FL

10:08 PM EST on February 10, 2016 (GMT -0500)
Big Coppitt Key Gulfside | | Change Station
CLOSE
Current Station
Personal Weather Station
Location: Key West, FL
Elevation: 31 ft
Nearby Weather Stations

Elev 31 ft 24.60 °N, 81.67 °W | Updated 13 minutes ago

Mostly Cloudy
Mostly Cloudy
61.9 °F
Feels Like 61.9 °F
N
0.0
Wind Variable Wind from WNW

Today
High -- | Low -- °F
--% Chance of Precip.
Yesterday
High -- | Low -- °F
Precip. -- in
Pressure 30.27 in
Visibility 10.0 miles
Clouds Few 5000 ft
Mostly Cloudy 25000 ft
Dew Point 50 °F
Humidity 66%
Rainfall 0.00 in
Snow Depth Not available.
7:03 AM 6:17 PM
Waxing Crescent, 9% visible
METAR KNQX 110253Z 33009KT 10SM FEW050 BKN250 17/11 A3027 RMK AO2 SLP249 T01670106 51008 $
Pressure 30.27 in
Visibility 10.0 miles
Clouds Few 5000 ft
Mostly Cloudy 25000 ft
Dew Point 50 °F
Humidity 66%
Rainfall 0.00 in
Snow Depth Not available.
7:03 AM 6:17 PM
Waxing Crescent, 9% visible
METAR KNQX 110253Z 33009KT 10SM FEW050 BKN250 17/11 A3027 RMK AO2 SLP249 T01670106 51008 $

10-Day Weather Forecast

Almanac

Astronomy

Feb. 10, 2016 Rise Set
Actual Time
Civil Twilight
Nautical Twilight
Astronomical Twilight
Moon
Length of Visible Light
Length of Day
Tomorrow will be .
, % of the Moon is Illuminated

Today's Extremes

State Highs State Lows

Community

WunderPhotos

Upload Photos

1,891,994 photos uploaded!

WunderBlog® & News

Nearby

Air Quality

  Air Quality AQ Index Pollutant
Not available.

Snow Depth

Station Depth Elevation

Earthquake Activity

City Distance Mag. Time & Date
Minimum magnitude displayed is 2.5.

Coastal Water Temperatures

Place Temperature

Stations

Nearby Weather Stations

Station Location Temp. Windchill Dew Point Humidity Wind Precip. Elev Updated Type
                   

Watches & Warnings

There are currently no watches in effect.